sensor_id;sensor_type;location;lat;lon;timestamp;temperature;humidity
29255;DHT22;16277;48.890;2.306;2023-05-20T00:09:58;18.70;82.20
29255;DHT22;16277;48.890;2.306;2023-05-20T00:25:04;17.80;84.70
29255;DHT22;16277;48.890;2.306;2023-05-20T00:40:09;17.80;85.10
29255;DHT22;16277;48.890;2.306;2023-05-20T00:55:17;18.10;83.80
29255;DHT22;16277;48.890;2.306;2023-05-20T01:10:23;18.30;83.00
29255;DHT22;16277;48.890;2.306;2023-05-20T01:25:29;18.00;84.40
29255;DHT22;16277;48.890;2.306;2023-05-20T01:40:35;17.70;85.30
29255;DHT22;16277;48.890;2.306;2023-05-20T01:55:40;17.90;84.80
29255;DHT22;16277;48.890;2.306;2023-05-20T02:10:46;17.90;85.10
29255;DHT22;16277;48.890;2.306;2023-05-20T02:25:51;17.50;86.70
29255;DHT22;16277;48.890;2.306;2023-05-20T02:40:56;17.20;88.80
29255;DHT22;16277;48.890;2.306;2023-05-20T02:56:02;17.40;88.40
29255;DHT22;16277;48.890;2.306;2023-05-20T03:11:07;17.30;89.20
29255;DHT22;16277;48.890;2.306;2023-05-20T03:26:11;17.10;90.00
29255;DHT22;16277;48.890;2.306;2023-05-20T03:41:16;17.10;90.20
29255;DHT22;16277;48.890;2.306;2023-05-20T03:56:21;17.20;90.30
29255;DHT22;16277;48.890;2.306;2023-05-20T04:11:26;17.20;90.10
29255;DHT22;16277;48.890;2.306;2023-05-20T04:26:30;17.10;90.50
29255;DHT22;16277;48.890;2.306;2023-05-20T04:41:36;17.10;90.40
29255;DHT22;16277;48.890;2.306;2023-05-20T04:56:40;17.10;90.50
29255;DHT22;16277;48.890;2.306;2023-05-20T05:11:45;16.90;91.00
29255;DHT22;16277;48.890;2.306;2023-05-20T05:26:53;17.10;91.00
29255;DHT22;16277;48.890;2.306;2023-05-20T05:41:59;17.20;90.80
29255;DHT22;16277;48.890;2.306;2023-05-20T05:57:04;17.40;90.40
29255;DHT22;16277;48.890;2.306;2023-05-20T06:12:11;17.50;90.40
29255;DHT22;16277;48.890;2.306;2023-05-20T06:27:17;17.40;90.50
29255;DHT22;16277;48.890;2.306;2023-05-20T06:42:22;17.60;90.20
29255;DHT22;16277;48.890;2.306;2023-05-20T06:57:38;17.70;89.90
29255;DHT22;16277;48.890;2.306;2023-05-20T07:12:44;17.80;90.20
29255;DHT22;16277;48.890;2.306;2023-05-20T07:27:50;18.00;89.90
29255;DHT22;16277;48.890;2.306;2023-05-20T07:42:55;18.00;90.20
29255;DHT22;16277;48.890;2.306;2023-05-20T07:57:59;17.40;90.50
29255;DHT22;16277;48.890;2.306;2023-05-20T08:13:06;17.70;90.80
29255;DHT22;16277;48.890;2.306;2023-05-20T08:28:11;18.20;89.80
29255;DHT22;16277;48.890;2.306;2023-05-20T08:43:16;18.40;89.60
29255;DHT22;16277;48.890;2.306;2023-05-20T08:58:21;18.30;90.30
29255;DHT22;16277;48.890;2.306;2023-05-20T09:13:28;18.40;90.10
29255;DHT22;16277;48.890;2.306;2023-05-20T09:28:33;18.60;89.90
29255;DHT22;16277;48.890;2.306;2023-05-20T09:43:40;18.80;87.90
29255;DHT22;16277;48.890;2.306;2023-05-20T09:58:46;19.00;87.90
29255;DHT22;16277;48.890;2.306;2023-05-20T10:14:08;19.20;87.90
29255;DHT22;16277;48.890;2.306;2023-05-20T10:29:17;19.40;86.30
29255;DHT22;16277;48.890;2.306;2023-05-20T10:44:23;19.60;83.40
29255;DHT22;16277;48.890;2.306;2023-05-20T10:59:27;19.70;82.70
29255;DHT22;16277;48.890;2.306;2023-05-20T11:14:34;20.10;82.20
29255;DHT22;16277;48.890;2.306;2023-05-20T11:29:39;20.30;77.20
29255;DHT22;16277;48.890;2.306;2023-05-20T11:44:44;20.60;73.70
29255;DHT22;16277;48.890;2.306;2023-05-20T11:59:51;20.70;72.10
29255;DHT22;16277;48.890;2.306;2023-05-20T12:14:55;21.10;72.70
29255;DHT22;16277;48.890;2.306;2023-05-20T12:30:00;21.60;73.80
29255;DHT22;16277;48.890;2.306;2023-05-20T12:45:07;21.40;73.90
29255;DHT22;16277;48.890;2.306;2023-05-20T13:00:13;21.80;74.50
29255;DHT22;16277;48.890;2.306;2023-05-20T13:15:18;21.70;75.60
29255;DHT22;16277;48.890;2.306;2023-05-20T13:30:22;21.90;75.80
29255;DHT22;16277;48.890;2.306;2023-05-20T13:45:27;22.20;74.70
29255;DHT22;16277;48.890;2.306;2023-05-20T14:00:32;25.00;67.30
29255;DHT22;16277;48.890;2.306;2023-05-20T14:15:37;26.60;62.60
29255;DHT22;16277;48.890;2.306;2023-05-20T14:30:42;24.30;66.70
29255;DHT22;16277;48.890;2.306;2023-05-20T14:45:47;23.50;70.50
29255;DHT22;16277;48.890;2.306;2023-05-20T15:00:51;23.40;73.00
29255;DHT22;16277;48.890;2.306;2023-05-20T15:15:56;26.60;64.70
29255;DHT22;16277;48.890;2.306;2023-05-20T15:31:00;29.40;58.30
29255;DHT22;16277;48.890;2.306;2023-05-20T15:46:05;25.70;65.30
29255;DHT22;16277;48.890;2.306;2023-05-20T16:01:09;24.40;68.90
29255;DHT22;16277;48.890;2.306;2023-05-20T16:16:14;23.60;70.60
29255;DHT22;16277;48.890;2.306;2023-05-20T16:31:19;23.40;72.20
29255;DHT22;16277;48.890;2.306;2023-05-20T16:46:24;22.90;72.40
29255;DHT22;16277;48.890;2.306;2023-05-20T17:01:29;22.90;72.90
29255;DHT22;16277;48.890;2.306;2023-05-20T17:16:34;22.60;73.90
29255;DHT22;16277;48.890;2.306;2023-05-20T17:31:39;22.20;75.10
29255;DHT22;16277;48.890;2.306;2023-05-20T17:46:43;22.10;76.20
29255;DHT22;16277;48.890;2.306;2023-05-20T18:01:49;22.10;77.10
29255;DHT22;16277;48.890;2.306;2023-05-20T18:16:54;22.00;77.40
29255;DHT22;16277;48.890;2.306;2023-05-20T18:32:00;21.80;79.10
29255;DHT22;16277;48.890;2.306;2023-05-20T18:47:05;21.70;80.10
29255;DHT22;16277;48.890;2.306;2023-05-20T19:02:09;21.60;81.00
29255;DHT22;16277;48.890;2.306;2023-05-20T19:17:14;21.50;81.70
29255;DHT22;16277;48.890;2.306;2023-05-20T19:32:23;21.30;81.90
29255;DHT22;16277;48.890;2.306;2023-05-20T19:47:28;21.30;82.90
29255;DHT22;16277;48.890;2.306;2023-05-20T20:02:33;21.20;83.70
29255;DHT22;16277;48.890;2.306;2023-05-20T20:17:41;21.00;84.00
29255;DHT22;16277;48.890;2.306;2023-05-20T20:32:47;20.90;85.40
29255;DHT22;16277;48.890;2.306;2023-05-20T20:47:52;20.70;86.50
29255;DHT22;16277;48.890;2.306;2023-05-20T21:02:58;20.50;87.50
29255;DHT22;16277;48.890;2.306;2023-05-20T21:18:02;20.70;87.10
29255;DHT22;16277;48.890;2.306;2023-05-20T21:33:07;20.50;87.50
29255;DHT22;16277;48.890;2.306;2023-05-20T21:48:12;20.30;88.00
29255;DHT22;16277;48.890;2.306;2023-05-20T22:03:18;19.80;90.80
29255;DHT22;16277;48.890;2.306;2023-05-20T22:18:24;19.50;91.30
29255;DHT22;16277;48.890;2.306;2023-05-20T22:33:29;20.00;91.20
29255;DHT22;16277;48.890;2.306;2023-05-20T22:48:34;19.70;91.50
29255;DHT22;16277;48.890;2.306;2023-05-20T23:03:38;19.50;91.60
29255;DHT22;16277;48.890;2.306;2023-05-20T23:18:43;19.50;91.70
29255;DHT22;16277;48.890;2.306;2023-05-20T23:33:48;19.40;92.10
29255;DHT22;16277;48.890;2.306;2023-05-20T23:48:53;19.40;92.30
